Airfield :
LOGIN :

Register | Disclaimer

   EN    FR    IT 

 










Legend :    VFR   Marginal VFR   IFR   Intensive IFR   Very Intensive IFR
Visi :
Ceiling :
>= 8 km
>= 3000ft
5 to 8 km
1000 to 3000 ft
1500m to 5 km
500 to 1000 ft
800 to 1500m
200 to 500 ft
< 800m
< 200 ft
Symbols :   Thunderstorms  Fog  Heavy snow  Heavy precipitations  Wind > 20 kt
SIGMETs :     Misc.  Thunderstorms  Icing  Turbulence  Mountain Waves  Volcanic Ashes






- Airport Elevation : 56 ft
- IATA code : TRD


ENVA - Trondheim , Værnes

CURRENT METAR :
  • 131650Z 23010KT CAVOK 24/13 Q1013 RMK WIND 670FT 30004KT

EXPIRED METARs :
  • 131620Z 23010KT CAVOK 24/13 Q1014 RMK WIND 670FT 30006KT
  • 131550Z 24010KT 200V270 CAVOK 24/13 Q1014 RMK WIND 670FT 29008KT
  • 131520Z 23012KT CAVOK 23/13 Q1014 RMK WIND 670FT 30010KT
  • 131450Z 23012KT CAVOK 23/13 Q1014 RMK WIND 670FT 29009KT
  • 131420Z 23012KT CAVOK 23/14 Q1014 RMK WIND 670FT 29008KT
  • 131350Z 24013KT CAVOK 22/13 Q1014 RMK WIND 670FT 29009KT
  • 131320Z 24013KT CAVOK 22/13 Q1015 BECMG VRB05KT RMK WIND 670FT 29008KT
  • 131250Z 24012KT CAVOK 22/14 Q1015 BECMG VRB05KT RMK WIND 670FT 28009KT
  • 131220Z 24012KT CAVOK 22/14 Q1015 BECMG VRB05KT RMK WIND 670FT 28006KT

TAF AMD TAF ENVA
Valid from the 13 at 14:00 until the 14 at 12:00 UTC


131436Z 1314/1412 26010KT CAVOK
BECMG 1315/1318 06007KT



MET'MAP, your aeronautical weather chart ! - Copyright ORBIFLY December 2007 - Disclaimer

ORBIFLY MET'MAP TEAM :

Programming & Development : Alexandra Zaïnal
Original concept : Baudouin d'Aumeries
Technical & hardware support : Manuel Goepfert
Assistance : Marc-Olivier Méhu




SOURCES & CREDITS :

   NOAA